Bannister, Michigan
Current Conditions -  °F | °C
As of 1:15 AM on Monday 26 Jan 2015 (Local Time) from KRNP Reporting Station
Light Snow Light Snow  
Wind Chill: 15°   Ceiling: 2100
Heat Index: 15°   Visibility: 10mi
Dew Point: 11°   Wind: 3mph
Humidity: 84%   Direction: 20°NNE
Pressure: 30"   Gusts: NA
Location:  43.13°N, 84.42°W
Report Text: KRNP 260615Z AUTO 02003KT 10SM -SN OVC021 M09/M11 A3000 RMK AO2 T10931115
Loading
Personal Weather Stations






























Interactive Weather Map New forecast layout! Learn more

10-Day Weather Forecast

Advertisements
Track Severe Weather on mobile